createdAt,value
2018-07-31T05:05:54.615Z,5.23
2018-07-31T05:10:57.997Z,4.80
2018-07-31T05:16:03.339Z,4.67
2018-07-31T05:21:06.678Z,4.10
2018-07-31T05:26:10.019Z,4.13
2018-07-31T05:31:13.359Z,4.03
2018-07-31T05:36:35.547Z,4.63
2018-07-31T05:41:38.881Z,5.27
2018-07-31T05:46:53.701Z,4.33
2018-07-31T05:51:57.096Z,4.97
2018-07-31T05:57:00.383Z,4.63
2018-07-31T06:02:04.473Z,5.27
2018-07-31T06:07:07.806Z,4.83
2018-07-31T06:12:11.133Z,5.47
2018-07-31T06:17:15.234Z,4.70
2018-07-31T06:22:18.574Z,4.57
2018-07-31T06:27:21.911Z,5.10
2018-07-31T06:32:25.253Z,6.00
2018-07-31T06:37:28.590Z,4.90
2018-07-31T06:42:31.929Z,4.63
2018-07-31T06:47:35.257Z,4.50
2018-07-31T06:52:39.357Z,4.70
2018-07-31T06:57:42.687Z,4.67
2018-07-31T07:02:46.798Z,6.43
2018-07-31T07:07:50.134Z,5.27
2018-07-31T07:12:54.245Z,4.83
2018-07-31T07:17:57.603Z,4.20
2018-07-31T07:23:00.962Z,4.23
2018-07-31T07:28:04.297Z,5.70
2018-07-31T07:33:08.402Z,4.67
2018-07-31T07:38:11.734Z,4.57
2018-07-31T07:43:15.067Z,5.00
2018-07-31T07:48:19.211Z,4.43
2018-07-31T07:53:23.286Z,4.13
2018-07-31T07:58:26.622Z,4.83
2018-07-31T08:03:29.961Z,4.80
2018-07-31T08:08:33.306Z,4.90
2018-07-31T08:13:36.641Z,4.60
2018-07-31T08:18:39.980Z,6.37
2018-07-31T08:23:44.079Z,5.90
2018-07-31T08:28:47.419Z,5.80
2018-07-31T08:33:50.759Z,6.33
2018-07-31T08:38:54.099Z,5.80
2018-07-31T08:43:57.427Z,5.23
2018-07-31T08:49:00.765Z,4.67
2018-07-31T08:54:04.866Z,4.97
2018-07-31T08:59:08.205Z,5.53
2018-07-31T09:04:11.542Z,6.33
2018-07-31T09:09:14.870Z,6.83
2018-07-31T09:14:18.199Z,5.33
2018-07-31T09:19:21.534Z,6.03
2018-07-31T09:24:24.931Z,5.47
2018-07-31T09:29:28.991Z,5.03
2018-07-31T09:34:32.321Z,5.60
2018-07-31T09:39:36.411Z,4.97
2018-07-31T09:44:39.765Z,4.23
2018-07-31T09:49:43.860Z,4.10
2018-07-31T09:54:47.216Z,6.17
2018-07-31T09:59:51.369Z,4.20
2018-07-31T10:04:55.508Z,3.97
2018-07-31T10:09:59.571Z,4.70
2018-07-31T10:15:03.098Z,5.07
2018-07-31T10:20:06.434Z,4.63
2018-07-31T10:25:09.810Z,4.10
2018-07-31T10:30:13.137Z,4.80
2018-07-31T10:35:16.474Z,4.70
2018-07-31T10:40:20.566Z,4.60
2018-07-31T10:45:23.901Z,5.37
2018-07-31T10:50:27.238Z,5.27
2018-07-31T10:55:30.577Z,4.87
2018-07-31T11:00:33.919Z,4.53
2018-07-31T11:05:37.255Z,5.40
2018-07-31T11:10:41.367Z,5.03
2018-07-31T11:15:44.706Z,4.62
2018-07-31T11:20:48.813Z,4.40
2018-07-31T11:25:52.163Z,4.00
2018-07-31T11:30:56.274Z,4.07
2018-07-31T11:36:00.392Z,4.95
2018-07-31T11:41:03.736Z,4.18
2018-07-31T11:46:07.854Z,4.80
2018-07-31T11:51:11.463Z,4.40
2018-07-31T11:56:14.829Z,4.37
2018-07-31T12:01:18.154Z,4.55
2018-07-31T12:06:21.491Z,4.75
2018-07-31T12:11:24.845Z,5.20
2018-07-31T12:16:28.206Z,5.07
2018-07-31T12:21:31.539Z,4.55
2018-07-31T12:26:34.873Z,5.18
2018-07-31T12:31:39.002Z,4.30
2018-07-31T12:36:43.097Z,4.70
2018-07-31T12:41:46.429Z,4.20
2018-07-31T12:46:49.770Z,4.10
2018-07-31T12:51:53.867Z,4.87
2018-07-31T12:56:57.204Z,4.45
2018-07-31T13:02:01.310Z,4.35
2018-07-31T13:07:04.650Z,4.70
2018-07-31T13:12:08.754Z,4.35
2018-07-31T13:17:12.106Z,3.62
2018-07-31T13:22:15.439Z,4.22
2018-07-31T13:27:18.776Z,4.40
2018-07-31T13:32:22.114Z,4.35
2018-07-31T13:37:25.449Z,3.60
2018-07-31T13:42:28.787Z,3.90
2018-07-31T13:47:32.138Z,4.10
2018-07-31T13:52:35.470Z,4.20
2018-07-31T13:57:39.581Z,5.43
2018-07-31T14:02:42.918Z,4.25
2018-07-31T14:07:47.015Z,3.62
2018-07-31T14:12:50.343Z,4.28
2018-07-31T14:17:53.678Z,3.55
2018-07-31T14:22:57.777Z,4.05
2018-07-31T14:28:01.134Z,4.28
2018-07-31T14:33:04.466Z,4.28
2018-07-31T14:38:07.822Z,3.83
2018-07-31T14:43:11.166Z,3.10
2018-07-31T14:48:14.548Z,3.95
2018-07-31T14:53:17.867Z,3.35
2018-07-31T14:58:21.201Z,3.75
2018-07-31T15:03:27.062Z,4.28
2018-07-31T15:08:31.221Z,3.70
2018-07-31T15:13:34.562Z,4.40
2018-07-31T15:18:38.042Z,4.35
2018-07-31T15:23:42.410Z,3.42
2018-07-31T15:28:45.747Z,3.90
2018-07-31T15:33:49.082Z,3.78
2018-07-31T15:38:52.433Z,3.90
2018-07-31T15:43:55.770Z,3.45
2018-07-31T15:48:59.098Z,3.80
2018-07-31T15:54:02.534Z,4.28
2018-07-31T15:59:05.826Z,3.87
2018-07-31T16:04:09.167Z,3.97
2018-07-31T16:09:13.271Z,3.67
2018-07-31T16:14:16.610Z,3.65
2018-07-31T16:19:19.947Z,3.60
2018-07-31T16:24:23.277Z,3.10
2018-07-31T16:29:26.606Z,3.53
2018-07-31T16:34:29.946Z,3.70
2018-07-31T16:39:34.104Z,3.60
2018-07-31T16:44:38.178Z,4.18
2018-07-31T16:49:41.523Z,3.53
2018-07-31T16:54:45.631Z,3.37
2018-07-31T16:59:49.227Z,4.12
2018-07-31T17:04:52.567Z,3.70
2018-07-31T17:09:56.668Z,3.83
2018-07-31T17:15:00.003Z,3.45
2018-07-31T17:20:03.342Z,4.22
2018-07-31T17:25:06.686Z,4.62
2018-07-31T17:30:10.020Z,3.30
2018-07-31T17:35:13.439Z,3.92
2018-07-31T17:40:16.916Z,3.80
2018-07-31T17:45:20.262Z,3.92
2018-07-31T17:50:23.610Z,3.65
2018-07-31T17:55:27.717Z,3.60
2018-07-31T18:00:31.049Z,3.40
2018-07-31T18:05:35.417Z,3.47
2018-07-31T18:10:39.450Z,3.90
2018-07-31T18:15:42.783Z,4.30
2018-07-31T18:20:46.119Z,4.10
2018-07-31T18:25:49.456Z,3.58
2018-07-31T18:30:53.550Z,3.55
2018-07-31T18:35:56.891Z,3.83
2018-07-31T18:41:01.245Z,4.72
2018-07-31T18:46:04.982Z,4.20
2018-07-31T18:51:08.809Z,3.45
2018-07-31T18:56:13.574Z,3.62
2018-07-31T19:01:17.349Z,4.20
2018-07-31T19:06:20.989Z,4.50
2018-07-31T19:11:24.589Z,4.80
2018-07-31T19:16:33.708Z,4.87
2018-07-31T19:21:38.985Z,5.18
2018-07-31T19:26:49.409Z,4.50
2018-07-31T19:31:53.031Z,3.60
2018-07-31T19:36:56.754Z,4.78
2018-07-31T19:42:00.504Z,4.68
2018-07-31T19:47:03.819Z,5.70
2018-07-31T19:52:07.210Z,5.43
2018-07-31T19:57:10.500Z,5.60
2018-07-31T20:02:14.627Z,5.57
2018-07-31T20:07:18.724Z,6.43
2018-07-31T20:12:22.351Z,5.80
2018-07-31T20:17:27.567Z,5.10
2018-07-31T20:22:30.964Z,4.60
2018-07-31T20:27:34.355Z,5.25
2018-07-31T20:32:38.474Z,5.20
2018-07-31T20:37:42.594Z,4.28
2018-07-31T20:42:46.145Z,5.12
2018-07-31T20:47:49.669Z,5.95
2018-07-31T20:52:53.393Z,6.45
2018-07-31T20:57:56.880Z,5.30
2018-07-31T21:03:00.724Z,5.18
2018-07-31T21:08:04.354Z,5.03
2018-07-31T21:13:09.543Z,5.35
2018-07-31T21:18:14.063Z,5.35
2018-07-31T21:23:18.322Z,5.75
2018-07-31T21:28:21.903Z,5.10
2018-07-31T21:33:26.124Z,4.10
2018-07-31T21:38:29.715Z,4.67
2018-07-31T21:43:34.092Z,4.67
2018-07-31T21:48:37.632Z,4.70
2018-07-31T21:54:07.894Z,8.40
2018-07-31T21:59:11.234Z,6.43
2018-07-31T22:04:15.335Z,6.10
2018-07-31T22:09:18.673Z,6.30
2018-07-31T22:14:22.790Z,6.33
2018-07-31T22:19:26.127Z,6.07
2018-07-31T22:24:30.315Z,6.00
2018-07-31T22:29:33.653Z,5.80
